sensor_id;sensor_type;location;lat;lon;timestamp;P1;durP1;ratioP1;P2;durP2;ratioP2
71360;SDS011;59166;48.908;1.870;2023-05-14T00:03:59;26.80;;;13.90;;
71360;SDS011;59166;48.908;1.870;2023-05-14T00:09:01;25.77;;;14.25;;
71360;SDS011;59166;48.908;1.870;2023-05-14T00:14:02;26.80;;;14.10;;
71360;SDS011;59166;48.908;1.870;2023-05-14T00:19:03;24.10;;;13.90;;
71360;SDS011;59166;48.908;1.870;2023-05-14T00:24:06;29.83;;;14.63;;
71360;SDS011;59166;48.908;1.870;2023-05-14T00:29:06;27.07;;;14.13;;
71360;SDS011;59166;48.908;1.870;2023-05-14T00:34:07;25.80;;;14.40;;
71360;SDS011;59166;48.908;1.870;2023-05-14T00:39:09;27.23;;;14.50;;
71360;SDS011;59166;48.908;1.870;2023-05-14T00:44:15;23.95;;;13.85;;
71360;SDS011;59166;48.908;1.870;2023-05-14T00:49:16;26.90;;;13.67;;
71360;SDS011;59166;48.908;1.870;2023-05-14T00:54:18;27.48;;;14.30;;
71360;SDS011;59166;48.908;1.870;2023-05-14T00:59:20;29.48;;;13.77;;
71360;SDS011;59166;48.908;1.870;2023-05-14T01:04:21;26.20;;;14.57;;
71360;SDS011;59166;48.908;1.870;2023-05-14T01:09:25;26.83;;;14.65;;
71360;SDS011;59166;48.908;1.870;2023-05-14T01:14:36;31.02;;;15.02;;
71360;SDS011;59166;48.908;1.870;2023-05-14T01:19:41;28.50;;;14.20;;
71360;SDS011;59166;48.908;1.870;2023-05-14T01:24:44;28.50;;;14.05;;
71360;SDS011;59166;48.908;1.870;2023-05-14T01:29:47;30.58;;;14.48;;
71360;SDS011;59166;48.908;1.870;2023-05-14T01:34:52;26.03;;;14.07;;
71360;SDS011;59166;48.908;1.870;2023-05-14T01:39:58;29.13;;;14.95;;
71360;SDS011;59166;48.908;1.870;2023-05-14T01:45:00;26.20;;;14.27;;
71360;SDS011;59166;48.908;1.870;2023-05-14T01:50:01;25.07;;;13.23;;
71360;SDS011;59166;48.908;1.870;2023-05-14T01:55:04;26.90;;;13.13;;
71360;SDS011;59166;48.908;1.870;2023-05-14T02:00:06;26.35;;;13.02;;
71360;SDS011;59166;48.908;1.870;2023-05-14T02:05:08;29.00;;;14.03;;
71360;SDS011;59166;48.908;1.870;2023-05-14T02:10:11;29.10;;;15.13;;
71360;SDS011;59166;48.908;1.870;2023-05-14T02:15:12;32.83;;;16.02;;
71360;SDS011;59166;48.908;1.870;2023-05-14T02:20:13;34.57;;;16.23;;
71360;SDS011;59166;48.908;1.870;2023-05-14T02:25:15;33.20;;;16.65;;
71360;SDS011;59166;48.908;1.870;2023-05-14T02:30:16;32.55;;;17.27;;
71360;SDS011;59166;48.908;1.870;2023-05-14T02:35:17;35.03;;;17.33;;
71360;SDS011;59166;48.908;1.870;2023-05-14T02:40:19;34.72;;;17.50;;
71360;SDS011;59166;48.908;1.870;2023-05-14T02:45:20;35.22;;;17.55;;
71360;SDS011;59166;48.908;1.870;2023-05-14T02:50:21;39.93;;;18.27;;
71360;SDS011;59166;48.908;1.870;2023-05-14T02:55:23;38.25;;;18.02;;
71360;SDS011;59166;48.908;1.870;2023-05-14T03:00:24;37.70;;;16.27;;
71360;SDS011;59166;48.908;1.870;2023-05-14T03:05:25;39.67;;;18.65;;
71360;SDS011;59166;48.908;1.870;2023-05-14T03:10:27;40.00;;;18.30;;
71360;SDS011;59166;48.908;1.870;2023-05-14T03:15:28;35.08;;;16.98;;
71360;SDS011;59166;48.908;1.870;2023-05-14T03:20:28;38.27;;;19.07;;
71360;SDS011;59166;48.908;1.870;2023-05-14T03:25:31;38.53;;;17.93;;
71360;SDS011;59166;48.908;1.870;2023-05-14T03:30:31;38.53;;;18.52;;
71360;SDS011;59166;48.908;1.870;2023-05-14T03:35:32;36.03;;;17.20;;
71360;SDS011;59166;48.908;1.870;2023-05-14T03:40:35;38.05;;;17.63;;
71360;SDS011;59166;48.908;1.870;2023-05-14T03:45:36;36.70;;;17.53;;
71360;SDS011;59166;48.908;1.870;2023-05-14T03:50:37;38.80;;;17.53;;
71360;SDS011;59166;48.908;1.870;2023-05-14T03:55:39;42.67;;;19.27;;
71360;SDS011;59166;48.908;1.870;2023-05-14T04:00:40;38.97;;;18.53;;
71360;SDS011;59166;48.908;1.870;2023-05-14T04:05:41;41.67;;;18.63;;
71360;SDS011;59166;48.908;1.870;2023-05-14T04:10:44;42.58;;;18.95;;
71360;SDS011;59166;48.908;1.870;2023-05-14T04:15:44;42.60;;;19.73;;
71360;SDS011;59166;48.908;1.870;2023-05-14T04:20:45;42.60;;;18.80;;
71360;SDS011;59166;48.908;1.870;2023-05-14T04:25:48;44.72;;;19.33;;
71360;SDS011;59166;48.908;1.870;2023-05-14T04:30:49;40.97;;;18.03;;
71360;SDS011;59166;48.908;1.870;2023-05-14T04:35:50;42.07;;;19.03;;
71360;SDS011;59166;48.908;1.870;2023-05-14T04:41:12;42.22;;;18.27;;
71360;SDS011;59166;48.908;1.870;2023-05-14T04:46:13;43.50;;;19.07;;
71360;SDS011;59166;48.908;1.870;2023-05-14T04:51:14;42.90;;;19.27;;
71360;SDS011;59166;48.908;1.870;2023-05-14T04:56:16;47.23;;;20.23;;
71360;SDS011;59166;48.908;1.870;2023-05-14T05:01:17;44.72;;;19.05;;
71360;SDS011;59166;48.908;1.870;2023-05-14T05:06:18;41.78;;;18.83;;
71360;SDS011;59166;48.908;1.870;2023-05-14T05:11:22;41.20;;;17.73;;
71360;SDS011;59166;48.908;1.870;2023-05-14T05:16:23;38.65;;;17.75;;
71360;SDS011;59166;48.908;1.870;2023-05-14T05:21:24;42.63;;;18.43;;
71360;SDS011;59166;48.908;1.870;2023-05-14T05:26:26;48.25;;;20.35;;
71360;SDS011;59166;48.908;1.870;2023-05-14T05:31:27;43.63;;;19.17;;
71360;SDS011;59166;48.908;1.870;2023-05-14T05:36:28;43.43;;;18.17;;
71360;SDS011;59166;48.908;1.870;2023-05-14T05:41:30;44.83;;;19.33;;
71360;SDS011;59166;48.908;1.870;2023-05-14T05:46:31;41.63;;;17.70;;
71360;SDS011;59166;48.908;1.870;2023-05-14T05:51:32;44.00;;;18.98;;
71360;SDS011;59166;48.908;1.870;2023-05-14T05:56:34;46.10;;;18.90;;
71360;SDS011;59166;48.908;1.870;2023-05-14T06:01:35;43.25;;;17.73;;
71360;SDS011;59166;48.908;1.870;2023-05-14T06:06:36;43.03;;;18.70;;
71360;SDS011;59166;48.908;1.870;2023-05-14T06:11:39;44.60;;;18.63;;
71360;SDS011;59166;48.908;1.870;2023-05-14T06:16:40;44.38;;;18.00;;
71360;SDS011;59166;48.908;1.870;2023-05-14T06:21:40;46.30;;;18.47;;
71360;SDS011;59166;48.908;1.870;2023-05-14T06:26:43;44.60;;;18.33;;
71360;SDS011;59166;48.908;1.870;2023-05-14T06:31:43;48.07;;;19.90;;
71360;SDS011;59166;48.908;1.870;2023-05-14T06:36:44;53.57;;;18.57;;
71360;SDS011;59166;48.908;1.870;2023-05-14T06:41:46;45.90;;;18.57;;
71360;SDS011;59166;48.908;1.870;2023-05-14T07:04:04;43.30;;;17.53;;
71360;SDS011;59166;48.908;1.870;2023-05-14T07:09:06;46.70;;;18.63;;
71360;SDS011;59166;48.908;1.870;2023-05-14T07:14:10;45.45;;;18.55;;
71360;SDS011;59166;48.908;1.870;2023-05-14T07:19:15;41.37;;;17.93;;
71360;SDS011;59166;48.908;1.870;2023-05-14T07:24:16;38.35;;;15.98;;
71360;SDS011;59166;48.908;1.870;2023-05-14T07:29:17;37.75;;;16.23;;
71360;SDS011;59166;48.908;1.870;2023-05-14T07:34:19;39.37;;;16.70;;
71360;SDS011;59166;48.908;1.870;2023-05-14T07:39:21;38.20;;;15.47;;
71360;SDS011;59166;48.908;1.870;2023-05-14T07:44:22;33.38;;;15.13;;
71360;SDS011;59166;48.908;1.870;2023-05-14T07:49:25;36.65;;;15.52;;
71360;SDS011;59166;48.908;1.870;2023-05-14T07:54:27;37.63;;;16.53;;
71360;SDS011;59166;48.908;1.870;2023-05-14T07:59:28;34.35;;;15.45;;
71360;SDS011;59166;48.908;1.870;2023-05-14T08:04:30;33.90;;;15.32;;
71360;SDS011;59166;48.908;1.870;2023-05-14T08:09:31;34.60;;;15.70;;
71360;SDS011;59166;48.908;1.870;2023-05-14T08:14:32;34.17;;;15.95;;
71360;SDS011;59166;48.908;1.870;2023-05-14T08:19:35;31.50;;;15.20;;
71360;SDS011;59166;48.908;1.870;2023-05-14T08:24:36;29.83;;;14.73;;
71360;SDS011;59166;48.908;1.870;2023-05-14T08:29:37;32.33;;;15.52;;
71360;SDS011;59166;48.908;1.870;2023-05-14T08:34:39;32.93;;;15.77;;
71360;SDS011;59166;48.908;1.870;2023-05-14T08:39:40;34.30;;;15.77;;
71360;SDS011;59166;48.908;1.870;2023-05-14T08:44:43;33.40;;;15.02;;
71360;SDS011;59166;48.908;1.870;2023-05-14T08:49:48;33.50;;;16.07;;
71360;SDS011;59166;48.908;1.870;2023-05-14T08:54:54;31.50;;;14.18;;
71360;SDS011;59166;48.908;1.870;2023-05-14T08:59:56;29.80;;;14.13;;
71360;SDS011;59166;48.908;1.870;2023-05-14T09:04:59;32.70;;;15.10;;
71360;SDS011;59166;48.908;1.870;2023-05-14T09:10:01;30.52;;;13.98;;
71360;SDS011;59166;48.908;1.870;2023-05-14T09:15:02;28.17;;;13.70;;
71360;SDS011;59166;48.908;1.870;2023-05-14T09:20:06;29.27;;;14.33;;
71360;SDS011;59166;48.908;1.870;2023-05-14T09:25:09;28.40;;;13.07;;
71360;SDS011;59166;48.908;1.870;2023-05-14T09:30:11;31.85;;;14.25;;
71360;SDS011;59166;48.908;1.870;2023-05-14T09:35:15;29.30;;;14.93;;
71360;SDS011;59166;48.908;1.870;2023-05-14T09:40:17;29.70;;;14.77;;
71360;SDS011;59166;48.908;1.870;2023-05-14T09:45:19;28.15;;;14.88;;
71360;SDS011;59166;48.908;1.870;2023-05-14T09:50:26;28.73;;;15.00;;
71360;SDS011;59166;48.908;1.870;2023-05-14T09:55:27;28.23;;;13.40;;
71360;SDS011;59166;48.908;1.870;2023-05-14T10:00:29;29.73;;;13.45;;
71360;SDS011;59166;48.908;1.870;2023-05-14T10:05:33;27.25;;;13.15;;
71360;SDS011;59166;48.908;1.870;2023-05-14T10:10:35;27.50;;;14.07;;
71360;SDS011;59166;48.908;1.870;2023-05-14T10:15:38;27.37;;;13.57;;
71360;SDS011;59166;48.908;1.870;2023-05-14T10:20:43;24.63;;;13.88;;
71360;SDS011;59166;48.908;1.870;2023-05-14T10:25:48;24.77;;;12.80;;
71360;SDS011;59166;48.908;1.870;2023-05-14T10:30:49;24.23;;;13.17;;
71360;SDS011;59166;48.908;1.870;2023-05-14T10:35:54;26.67;;;14.50;;
71360;SDS011;59166;48.908;1.870;2023-05-14T10:41:00;23.33;;;13.57;;
71360;SDS011;59166;48.908;1.870;2023-05-14T10:46:03;21.87;;;12.63;;
71360;SDS011;59166;48.908;1.870;2023-05-14T10:51:07;27.08;;;14.00;;
71360;SDS011;59166;48.908;1.870;2023-05-14T10:56:10;22.73;;;12.93;;
71360;SDS011;59166;48.908;1.870;2023-05-14T11:01:12;20.50;;;11.80;;
71360;SDS011;59166;48.908;1.870;2023-05-14T11:06:15;21.73;;;12.13;;
71360;SDS011;59166;48.908;1.870;2023-05-14T11:11:16;20.17;;;12.43;;
71360;SDS011;59166;48.908;1.870;2023-05-14T11:16:17;21.50;;;12.98;;
71360;SDS011;59166;48.908;1.870;2023-05-14T11:21:21;21.13;;;11.23;;
71360;SDS011;59166;48.908;1.870;2023-05-14T11:26:23;19.63;;;11.63;;
71360;SDS011;59166;48.908;1.870;2023-05-14T11:31:24;19.67;;;11.60;;
71360;SDS011;59166;48.908;1.870;2023-05-14T11:36:27;19.00;;;11.63;;
71360;SDS011;59166;48.908;1.870;2023-05-14T11:41:28;19.60;;;10.93;;
71360;SDS011;59166;48.908;1.870;2023-05-14T11:46:29;19.17;;;10.95;;
71360;SDS011;59166;48.908;1.870;2023-05-14T11:51:31;18.23;;;10.37;;
71360;SDS011;59166;48.908;1.870;2023-05-14T11:56:33;17.92;;;10.85;;
71360;SDS011;59166;48.908;1.870;2023-05-14T12:01:34;17.50;;;10.20;;
71360;SDS011;59166;48.908;1.870;2023-05-14T12:06:37;18.10;;;10.73;;
71360;SDS011;59166;48.908;1.870;2023-05-14T12:11:40;17.23;;;10.63;;
71360;SDS011;59166;48.908;1.870;2023-05-14T12:16:41;17.60;;;9.75;;
71360;SDS011;59166;48.908;1.870;2023-05-14T12:21:46;14.10;;;8.70;;
71360;SDS011;59166;48.908;1.870;2023-05-14T12:26:51;15.60;;;9.60;;
71360;SDS011;59166;48.908;1.870;2023-05-14T12:31:56;15.10;;;9.30;;
71360;SDS011;59166;48.908;1.870;2023-05-14T12:36:58;16.13;;;9.03;;
71360;SDS011;59166;48.908;1.870;2023-05-14T12:42:00;13.40;;;8.10;;
71360;SDS011;59166;48.908;1.870;2023-05-14T12:47:01;15.10;;;9.35;;
71360;SDS011;59166;48.908;1.870;2023-05-14T12:52:05;19.25;;;9.52;;
71360;SDS011;59166;48.908;1.870;2023-05-14T12:57:06;13.57;;;8.37;;
71360;SDS011;59166;48.908;1.870;2023-05-14T13:02:11;13.02;;;8.30;;
71360;SDS011;59166;48.908;1.870;2023-05-14T13:07:14;15.87;;;8.00;;
71360;SDS011;59166;48.908;1.870;2023-05-14T13:12:23;13.70;;;8.23;;
71360;SDS011;59166;48.908;1.870;2023-05-14T13:17:38;12.70;;;7.53;;
71360;SDS011;59166;48.908;1.870;2023-05-14T13:22:40;14.20;;;7.33;;
71360;SDS011;59166;48.908;1.870;2023-05-14T13:27:41;13.63;;;7.43;;
71360;SDS011;59166;48.908;1.870;2023-05-14T13:32:42;11.50;;;6.65;;
71360;SDS011;59166;48.908;1.870;2023-05-14T13:37:45;12.13;;;7.33;;
71360;SDS011;59166;48.908;1.870;2023-05-14T13:42:46;13.02;;;6.88;;
71360;SDS011;59166;48.908;1.870;2023-05-14T13:47:47;11.57;;;6.63;;
71360;SDS011;59166;48.908;1.870;2023-05-14T13:52:50;11.93;;;6.97;;
71360;SDS011;59166;48.908;1.870;2023-05-14T13:57:51;11.88;;;6.30;;
71360;SDS011;59166;48.908;1.870;2023-05-14T14:02:52;13.53;;;6.67;;
71360;SDS011;59166;48.908;1.870;2023-05-14T14:07:55;14.90;;;6.78;;
71360;SDS011;59166;48.908;1.870;2023-05-14T14:12:56;11.13;;;6.63;;
71360;SDS011;59166;48.908;1.870;2023-05-14T14:17:57;10.87;;;6.00;;
71360;SDS011;59166;48.908;1.870;2023-05-14T14:22:59;12.18;;;6.10;;
71360;SDS011;59166;48.908;1.870;2023-05-14T14:28:00;14.67;;;6.57;;
71360;SDS011;59166;48.908;1.870;2023-05-14T14:33:01;12.65;;;6.22;;
71360;SDS011;59166;48.908;1.870;2023-05-14T14:38:03;13.07;;;6.63;;
71360;SDS011;59166;48.908;1.870;2023-05-14T14:43:04;11.17;;;6.27;;
71360;SDS011;59166;48.908;1.870;2023-05-14T14:48:24;13.25;;;6.47;;
71360;SDS011;59166;48.908;1.870;2023-05-14T14:53:28;11.03;;;6.33;;
71360;SDS011;59166;48.908;1.870;2023-05-14T14:58:29;13.52;;;6.88;;
71360;SDS011;59166;48.908;1.870;2023-05-14T15:03:30;14.55;;;6.78;;
71360;SDS011;59166;48.908;1.870;2023-05-14T15:08:32;11.13;;;5.80;;
71360;SDS011;59166;48.908;1.870;2023-05-14T15:13:33;10.93;;;6.05;;
71360;SDS011;59166;48.908;1.870;2023-05-14T15:18:34;11.10;;;6.70;;
71360;SDS011;59166;48.908;1.870;2023-05-14T15:23:36;12.90;;;6.47;;
71360;SDS011;59166;48.908;1.870;2023-05-14T15:28:36;14.93;;;6.90;;
71360;SDS011;59166;48.908;1.870;2023-05-14T15:33:37;11.97;;;6.00;;
71360;SDS011;59166;48.908;1.870;2023-05-14T15:38:39;11.33;;;6.00;;
71360;SDS011;59166;48.908;1.870;2023-05-14T15:43:40;11.23;;;6.07;;
71360;SDS011;59166;48.908;1.870;2023-05-14T15:48:41;11.13;;;5.80;;
71360;SDS011;59166;48.908;1.870;2023-05-14T15:53:43;12.57;;;5.70;;
71360;SDS011;59166;48.908;1.870;2023-05-14T15:58:44;10.10;;;5.55;;
71360;SDS011;59166;48.908;1.870;2023-05-14T16:03:45;14.93;;;5.33;;
71360;SDS011;59166;48.908;1.870;2023-05-14T16:08:47;8.75;;;5.05;;
71360;SDS011;59166;48.908;1.870;2023-05-14T16:13:48;10.07;;;5.10;;
71360;SDS011;59166;48.908;1.870;2023-05-14T16:18:49;10.15;;;5.20;;
71360;SDS011;59166;48.908;1.870;2023-05-14T16:23:51;9.93;;;5.10;;
71360;SDS011;59166;48.908;1.870;2023-05-14T16:28:52;10.43;;;5.38;;
71360;SDS011;59166;48.908;1.870;2023-05-14T16:33:52;12.40;;;5.70;;
71360;SDS011;59166;48.908;1.870;2023-05-14T16:38:55;11.20;;;5.70;;
71360;SDS011;59166;48.908;1.870;2023-05-14T16:43:56;11.00;;;5.40;;
71360;SDS011;59166;48.908;1.870;2023-05-14T16:48:56;9.70;;;5.20;;
71360;SDS011;59166;48.908;1.870;2023-05-14T16:53:58;12.23;;;5.77;;
71360;SDS011;59166;48.908;1.870;2023-05-14T16:58:59;10.07;;;5.22;;
71360;SDS011;59166;48.908;1.870;2023-05-14T17:04:00;11.00;;;5.67;;
71360;SDS011;59166;48.908;1.870;2023-05-14T17:09:02;12.98;;;5.90;;
71360;SDS011;59166;48.908;1.870;2023-05-14T17:14:03;11.25;;;6.10;;
71360;SDS011;59166;48.908;1.870;2023-05-14T17:19:04;13.17;;;6.00;;
71360;SDS011;59166;48.908;1.870;2023-05-14T17:24:07;11.27;;;5.53;;
71360;SDS011;59166;48.908;1.870;2023-05-14T17:29:09;11.93;;;5.97;;
71360;SDS011;59166;48.908;1.870;2023-05-14T17:34:09;11.93;;;6.03;;
71360;SDS011;59166;48.908;1.870;2023-05-14T17:39:12;14.17;;;6.50;;
71360;SDS011;59166;48.908;1.870;2023-05-14T17:44:12;11.70;;;5.97;;
71360;SDS011;59166;48.908;1.870;2023-05-14T17:49:13;10.73;;;6.10;;
71360;SDS011;59166;48.908;1.870;2023-05-14T17:54:15;11.97;;;6.07;;
71360;SDS011;59166;48.908;1.870;2023-05-14T17:59:16;11.88;;;5.78;;
71360;SDS011;59166;48.908;1.870;2023-05-14T18:04:17;9.97;;;5.47;;
71360;SDS011;59166;48.908;1.870;2023-05-14T18:09:19;9.68;;;5.20;;
71360;SDS011;59166;48.908;1.870;2023-05-14T18:14:20;10.13;;;5.00;;
71360;SDS011;59166;48.908;1.870;2023-05-14T18:19:21;8.77;;;4.43;;
71360;SDS011;59166;48.908;1.870;2023-05-14T18:24:23;8.60;;;4.40;;
71360;SDS011;59166;48.908;1.870;2023-05-14T18:29:24;9.93;;;4.63;;
71360;SDS011;59166;48.908;1.870;2023-05-14T18:34:25;11.93;;;6.43;;
71360;SDS011;59166;48.908;1.870;2023-05-14T18:39:27;12.67;;;6.40;;
71360;SDS011;59166;48.908;1.870;2023-05-14T18:44:28;11.00;;;6.35;;
71360;SDS011;59166;48.908;1.870;2023-05-14T18:49:29;11.17;;;6.07;;
71360;SDS011;59166;48.908;1.870;2023-05-14T18:54:31;10.38;;;5.88;;
71360;SDS011;59166;48.908;1.870;2023-05-14T18:59:32;10.43;;;6.10;;
71360;SDS011;59166;48.908;1.870;2023-05-14T19:04:33;14.47;;;6.57;;
71360;SDS011;59166;48.908;1.870;2023-05-14T19:09:35;11.57;;;6.18;;
71360;SDS011;59166;48.908;1.870;2023-05-14T19:14:36;11.53;;;6.27;;
71360;SDS011;59166;48.908;1.870;2023-05-14T19:19:37;10.52;;;6.20;;
71360;SDS011;59166;48.908;1.870;2023-05-14T19:24:39;10.87;;;6.27;;
71360;SDS011;59166;48.908;1.870;2023-05-14T19:29:40;11.90;;;6.45;;
71360;SDS011;59166;48.908;1.870;2023-05-14T19:34:41;11.68;;;6.30;;
71360;SDS011;59166;48.908;1.870;2023-05-14T19:39:43;12.17;;;6.80;;
71360;SDS011;59166;48.908;1.870;2023-05-14T19:44:44;11.52;;;6.15;;
71360;SDS011;59166;48.908;1.870;2023-05-14T19:49:45;14.77;;;7.20;;
71360;SDS011;59166;48.908;1.870;2023-05-14T19:54:48;11.98;;;6.82;;
71360;SDS011;59166;48.908;1.870;2023-05-14T19:59:49;13.43;;;7.30;;
71360;SDS011;59166;48.908;1.870;2023-05-14T20:04:50;14.40;;;7.30;;
71360;SDS011;59166;48.908;1.870;2023-05-14T20:09:52;11.65;;;6.78;;
71360;SDS011;59166;48.908;1.870;2023-05-14T20:14:53;16.08;;;7.72;;
71360;SDS011;59166;48.908;1.870;2023-05-14T20:19:54;16.97;;;8.00;;
71360;SDS011;59166;48.908;1.870;2023-05-14T20:24:56;12.80;;;7.22;;
71360;SDS011;59166;48.908;1.870;2023-05-14T20:29:57;12.05;;;7.38;;
71360;SDS011;59166;48.908;1.870;2023-05-14T20:34:58;13.20;;;7.60;;
71360;SDS011;59166;48.908;1.870;2023-05-14T20:40:01;14.70;;;7.95;;
71360;SDS011;59166;48.908;1.870;2023-05-14T20:45:02;14.18;;;7.88;;
71360;SDS011;59166;48.908;1.870;2023-05-14T20:50:04;15.10;;;8.10;;
71360;SDS011;59166;48.908;1.870;2023-05-14T20:55:08;14.43;;;8.10;;
71360;SDS011;59166;48.908;1.870;2023-05-14T21:00:09;16.98;;;8.75;;
71360;SDS011;59166;48.908;1.870;2023-05-14T21:05:11;14.20;;;8.93;;
71360;SDS011;59166;48.908;1.870;2023-05-14T21:10:13;16.60;;;8.70;;
71360;SDS011;59166;48.908;1.870;2023-05-14T21:15:14;15.97;;;9.20;;
71360;SDS011;59166;48.908;1.870;2023-05-14T21:20:15;15.17;;;9.03;;
71360;SDS011;59166;48.908;1.870;2023-05-14T21:25:17;19.38;;;9.45;;
71360;SDS011;59166;48.908;1.870;2023-05-14T21:30:18;14.97;;;9.20;;
71360;SDS011;59166;48.908;1.870;2023-05-14T21:35:19;15.48;;;9.23;;
71360;SDS011;59166;48.908;1.870;2023-05-14T21:40:21;16.13;;;10.00;;
71360;SDS011;59166;48.908;1.870;2023-05-14T21:45:22;15.97;;;9.53;;
71360;SDS011;59166;48.908;1.870;2023-05-14T21:50:23;19.67;;;10.05;;
71360;SDS011;59166;48.908;1.870;2023-05-14T21:55:25;16.17;;;9.53;;
71360;SDS011;59166;48.908;1.870;2023-05-14T22:00:26;16.58;;;10.02;;
71360;SDS011;59166;48.908;1.870;2023-05-14T22:05:27;17.03;;;9.43;;
71360;SDS011;59166;48.908;1.870;2023-05-14T22:10:30;17.70;;;9.70;;
71360;SDS011;59166;48.908;1.870;2023-05-14T22:15:31;16.27;;;8.83;;
71360;SDS011;59166;48.908;1.870;2023-05-14T22:20:31;19.50;;;9.67;;
71360;SDS011;59166;48.908;1.870;2023-05-14T22:25:34;17.77;;;9.90;;
71360;SDS011;59166;48.908;1.870;2023-05-14T22:30:34;17.15;;;9.55;;
71360;SDS011;59166;48.908;1.870;2023-05-14T22:35:36;19.23;;;10.82;;
71360;SDS011;59166;48.908;1.870;2023-05-14T22:40:38;18.17;;;10.60;;
71360;SDS011;59166;48.908;1.870;2023-05-14T22:45:39;21.00;;;10.82;;
71360;SDS011;59166;48.908;1.870;2023-05-14T22:50:40;18.93;;;11.23;;
71360;SDS011;59166;48.908;1.870;2023-05-14T22:55:42;18.23;;;10.65;;
71360;SDS011;59166;48.908;1.870;2023-05-14T23:00:43;20.20;;;11.02;;
71360;SDS011;59166;48.908;1.870;2023-05-14T23:05:44;21.37;;;11.40;;
71360;SDS011;59166;48.908;1.870;2023-05-14T23:10:46;20.77;;;11.48;;
71360;SDS011;59166;48.908;1.870;2023-05-14T23:15:47;21.57;;;12.30;;
71360;SDS011;59166;48.908;1.870;2023-05-14T23:20:48;19.57;;;11.67;;
71360;SDS011;59166;48.908;1.870;2023-05-14T23:25:50;21.20;;;11.80;;
71360;SDS011;59166;48.908;1.870;2023-05-14T23:30:51;22.17;;;12.00;;
71360;SDS011;59166;48.908;1.870;2023-05-14T23:35:52;21.65;;;11.65;;
71360;SDS011;59166;48.908;1.870;2023-05-14T23:40:54;21.10;;;12.43;;
71360;SDS011;59166;48.908;1.870;2023-05-14T23:45:55;22.23;;;11.95;;
71360;SDS011;59166;48.908;1.870;2023-05-14T23:50:55;23.77;;;12.67;;
71360;SDS011;59166;48.908;1.870;2023-05-14T23:55:58;24.73;;;12.93;;
